sensor_id;sensor_type;location;lat;lon;timestamp;P1;durP1;ratioP1;P2;durP2;ratioP2
1885;SDS011;943;51.568;6.998;2023-05-10T00:02:08;17.70;;;9.50;;
1885;SDS011;943;51.568;6.998;2023-05-10T00:04:36;20.40;;;10.10;;
1885;SDS011;943;51.568;6.998;2023-05-10T00:07:04;22.53;;;10.27;;
1885;SDS011;943;51.568;6.998;2023-05-10T00:09:32;27.17;;;11.80;;
1885;SDS011;943;51.568;6.998;2023-05-10T00:12:00;30.77;;;14.20;;
1885;SDS011;943;51.568;6.998;2023-05-10T00:14:27;30.67;;;15.03;;
1885;SDS011;943;51.568;6.998;2023-05-10T00:16:56;28.20;;;13.90;;
1885;SDS011;943;51.568;6.998;2023-05-10T00:19:24;37.27;;;13.93;;
1885;SDS011;943;51.568;6.998;2023-05-10T00:21:52;32.23;;;15.27;;
1885;SDS011;943;51.568;6.998;2023-05-10T00:24:20;38.37;;;16.50;;
1885;SDS011;943;51.568;6.998;2023-05-10T00:26:48;35.63;;;16.50;;
1885;SDS011;943;51.568;6.998;2023-05-10T00:29:16;47.40;;;17.97;;
1885;SDS011;943;51.568;6.998;2023-05-10T00:31:44;36.17;;;17.37;;
1885;SDS011;943;51.568;6.998;2023-05-10T00:34:12;41.40;;;16.93;;
1885;SDS011;943;51.568;6.998;2023-05-10T00:36:40;32.43;;;15.50;;
1885;SDS011;943;51.568;6.998;2023-05-10T00:39:08;34.57;;;16.40;;
1885;SDS011;943;51.568;6.998;2023-05-10T00:41:37;30.43;;;15.00;;
1885;SDS011;943;51.568;6.998;2023-05-10T00:44:06;27.90;;;13.50;;
1885;SDS011;943;51.568;6.998;2023-05-10T00:46:34;28.20;;;14.83;;
1885;SDS011;943;51.568;6.998;2023-05-10T00:49:02;30.37;;;14.03;;
1885;SDS011;943;51.568;6.998;2023-05-10T00:51:31;27.97;;;15.03;;
1885;SDS011;943;51.568;6.998;2023-05-10T00:53:59;23.47;;;12.67;;
1885;SDS011;943;51.568;6.998;2023-05-10T00:56:27;21.07;;;10.83;;
1885;SDS011;943;51.568;6.998;2023-05-10T00:58:56;22.67;;;11.30;;
1885;SDS011;943;51.568;6.998;2023-05-10T01:01:24;19.60;;;10.87;;
1885;SDS011;943;51.568;6.998;2023-05-10T01:03:52;21.00;;;11.10;;
1885;SDS011;943;51.568;6.998;2023-05-10T01:06:22;16.70;;;9.07;;
1885;SDS011;943;51.568;6.998;2023-05-10T01:08:51;21.83;;;8.80;;
1885;SDS011;943;51.568;6.998;2023-05-10T01:11:19;17.60;;;8.37;;
1885;SDS011;943;51.568;6.998;2023-05-10T01:13:50;17.63;;;8.97;;
1885;SDS011;943;51.568;6.998;2023-05-10T01:16:24;16.20;;;9.20;;
1885;SDS011;943;51.568;6.998;2023-05-10T01:18:56;18.03;;;8.97;;
1885;SDS011;943;51.568;6.998;2023-05-10T01:21:46;18.13;;;9.07;;
1885;SDS011;943;51.568;6.998;2023-05-10T01:32:26;33.10;;;13.03;;
1885;SDS011;943;51.568;6.998;2023-05-10T01:35:18;33.53;;;14.97;;
1885;SDS011;943;51.568;6.998;2023-05-10T01:38:41;37.00;;;15.37;;
1885;SDS011;943;51.568;6.998;2023-05-10T01:44:39;42.23;;;15.23;;
1885;SDS011;943;51.568;6.998;2023-05-10T01:47:40;27.37;;;13.77;;
1885;SDS011;943;51.568;6.998;2023-05-10T01:50:18;34.47;;;15.83;;
1885;SDS011;943;51.568;6.998;2023-05-10T01:52:57;33.43;;;16.23;;
1885;SDS011;943;51.568;6.998;2023-05-10T01:55:30;35.47;;;15.40;;
1885;SDS011;943;51.568;6.998;2023-05-10T01:58:19;42.20;;;16.20;;
1885;SDS011;943;51.568;6.998;2023-05-10T02:00:57;34.90;;;15.73;;
1885;SDS011;943;51.568;6.998;2023-05-10T02:03:32;42.93;;;17.37;;
1885;SDS011;943;51.568;6.998;2023-05-10T02:06:05;39.13;;;15.57;;
1885;SDS011;943;51.568;6.998;2023-05-10T02:08:36;48.73;;;18.00;;
1885;SDS011;943;51.568;6.998;2023-05-10T02:11:08;43.73;;;17.07;;
1885;SDS011;943;51.568;6.998;2023-05-10T02:13:41;50.10;;;17.97;;
1885;SDS011;943;51.568;6.998;2023-05-10T02:16:11;47.87;;;17.37;;
1885;SDS011;943;51.568;6.998;2023-05-10T02:18:43;48.43;;;18.20;;
1885;SDS011;943;51.568;6.998;2023-05-10T02:21:13;51.27;;;20.20;;
1885;SDS011;943;51.568;6.998;2023-05-10T02:23:45;46.30;;;18.17;;
1885;SDS011;943;51.568;6.998;2023-05-10T02:26:19;43.37;;;19.90;;
1885;SDS011;943;51.568;6.998;2023-05-10T02:28:51;44.53;;;20.33;;
1885;SDS011;943;51.568;6.998;2023-05-10T02:31:22;54.57;;;20.30;;
1885;SDS011;943;51.568;6.998;2023-05-10T02:33:52;54.87;;;20.77;;
1885;SDS011;943;51.568;6.998;2023-05-10T02:36:23;51.13;;;20.60;;
1885;SDS011;943;51.568;6.998;2023-05-10T02:38:54;58.20;;;23.77;;
1885;SDS011;943;51.568;6.998;2023-05-10T02:41:25;61.13;;;24.30;;
1885;SDS011;943;51.568;6.998;2023-05-10T02:43:59;54.67;;;25.37;;
1885;SDS011;943;51.568;6.998;2023-05-10T02:46:29;64.23;;;26.10;;
1885;SDS011;943;51.568;6.998;2023-05-10T02:48:58;63.83;;;25.30;;
1885;SDS011;943;51.568;6.998;2023-05-10T02:51:28;58.23;;;22.63;;
1885;SDS011;943;51.568;6.998;2023-05-10T02:54:13;70.17;;;24.23;;
1885;SDS011;943;51.568;6.998;2023-05-10T02:56:55;89.43;;;23.80;;
1885;SDS011;943;51.568;6.998;2023-05-10T02:59:29;68.73;;;22.77;;
1885;SDS011;943;51.568;6.998;2023-05-10T03:01:59;63.07;;;21.77;;
1885;SDS011;943;51.568;6.998;2023-05-10T03:04:28;76.80;;;23.70;;
1885;SDS011;943;51.568;6.998;2023-05-10T03:06:57;55.93;;;22.27;;
1885;SDS011;943;51.568;6.998;2023-05-10T03:09:25;68.67;;;22.47;;
1885;SDS011;943;51.568;6.998;2023-05-10T03:11:57;61.73;;;23.10;;
1885;SDS011;943;51.568;6.998;2023-05-10T03:14:56;78.77;;;23.90;;
1885;SDS011;943;51.568;6.998;2023-05-10T03:18:06;64.87;;;21.63;;
1885;SDS011;943;51.568;6.998;2023-05-10T03:21:05;68.13;;;22.60;;
1885;SDS011;943;51.568;6.998;2023-05-10T03:24:14;82.40;;;25.60;;
1885;SDS011;943;51.568;6.998;2023-05-10T03:26:39;82.97;;;24.80;;
1885;SDS011;943;51.568;6.998;2023-05-10T03:29:15;80.83;;;24.47;;
1885;SDS011;943;51.568;6.998;2023-05-10T03:31:46;87.17;;;25.17;;
1885;SDS011;943;51.568;6.998;2023-05-10T03:34:14;88.17;;;27.50;;
1885;SDS011;943;51.568;6.998;2023-05-10T03:36:43;76.07;;;25.70;;
1885;SDS011;943;51.568;6.998;2023-05-10T03:39:11;92.80;;;27.67;;
1885;SDS011;943;51.568;6.998;2023-05-10T03:41:39;88.43;;;26.73;;
1885;SDS011;943;51.568;6.998;2023-05-10T03:44:07;107.20;;;29.53;;
1885;SDS011;943;51.568;6.998;2023-05-10T03:46:35;98.30;;;27.93;;
1885;SDS011;943;51.568;6.998;2023-05-10T03:49:03;103.73;;;30.67;;
1885;SDS011;943;51.568;6.998;2023-05-10T03:51:31;97.37;;;29.50;;
1885;SDS011;943;51.568;6.998;2023-05-10T03:53:59;92.57;;;29.33;;
1885;SDS011;943;51.568;6.998;2023-05-10T03:56:27;97.23;;;34.60;;
1885;SDS011;943;51.568;6.998;2023-05-10T03:58:55;111.10;;;33.17;;
1885;SDS011;943;51.568;6.998;2023-05-10T04:01:23;97.23;;;34.10;;
1885;SDS011;943;51.568;6.998;2023-05-10T04:03:52;116.07;;;33.10;;
1885;SDS011;943;51.568;6.998;2023-05-10T04:06:20;116.63;;;39.03;;
1885;SDS011;943;51.568;6.998;2023-05-10T04:08:49;122.83;;;38.67;;
1885;SDS011;943;51.568;6.998;2023-05-10T04:11:17;125.80;;;38.70;;
1885;SDS011;943;51.568;6.998;2023-05-10T04:13:45;138.60;;;39.97;;
1885;SDS011;943;51.568;6.998;2023-05-10T04:16:13;156.90;;;44.20;;
1885;SDS011;943;51.568;6.998;2023-05-10T04:18:41;157.33;;;44.53;;
1885;SDS011;943;51.568;6.998;2023-05-10T04:21:12;173.70;;;45.03;;
1885;SDS011;943;51.568;6.998;2023-05-10T04:23:41;160.57;;;47.40;;
1885;SDS011;943;51.568;6.998;2023-05-10T04:26:08;163.63;;;49.57;;
1885;SDS011;943;51.568;6.998;2023-05-10T04:28:37;169.10;;;45.07;;
1885;SDS011;943;51.568;6.998;2023-05-10T04:31:06;191.73;;;46.60;;
1885;SDS011;943;51.568;6.998;2023-05-10T04:33:36;166.23;;;46.77;;
1885;SDS011;943;51.568;6.998;2023-05-10T04:36:05;144.93;;;44.27;;
1885;SDS011;943;51.568;6.998;2023-05-10T04:38:33;141.87;;;43.57;;
1885;SDS011;943;51.568;6.998;2023-05-10T04:41:07;142.87;;;45.53;;
1885;SDS011;943;51.568;6.998;2023-05-10T04:43:38;146.47;;;43.77;;
1885;SDS011;943;51.568;6.998;2023-05-10T04:46:06;135.37;;;42.27;;
1885;SDS011;943;51.568;6.998;2023-05-10T04:48:34;146.17;;;42.40;;
1885;SDS011;943;51.568;6.998;2023-05-10T04:51:02;144.37;;;42.10;;
1885;SDS011;943;51.568;6.998;2023-05-10T04:53:31;151.10;;;42.67;;
1885;SDS011;943;51.568;6.998;2023-05-10T04:55:59;128.83;;;41.27;;
1885;SDS011;943;51.568;6.998;2023-05-10T04:58:27;122.23;;;41.77;;
1885;SDS011;943;51.568;6.998;2023-05-10T05:00:55;139.73;;;43.00;;
1885;SDS011;943;51.568;6.998;2023-05-10T05:03:23;123.10;;;42.97;;
1885;SDS011;943;51.568;6.998;2023-05-10T05:05:51;116.30;;;39.40;;
1885;SDS011;943;51.568;6.998;2023-05-10T05:08:19;125.83;;;40.80;;
1885;SDS011;943;51.568;6.998;2023-05-10T05:10:47;111.67;;;40.03;;
1885;SDS011;943;51.568;6.998;2023-05-10T05:13:16;112.00;;;41.70;;
1885;SDS011;943;51.568;6.998;2023-05-10T05:15:45;131.70;;;42.10;;
1885;SDS011;943;51.568;6.998;2023-05-10T05:18:13;117.77;;;40.93;;
1885;SDS011;943;51.568;6.998;2023-05-10T05:20:41;141.80;;;45.73;;
1885;SDS011;943;51.568;6.998;2023-05-10T05:23:09;132.97;;;42.60;;
1885;SDS011;943;51.568;6.998;2023-05-10T05:25:37;120.60;;;40.57;;
1885;SDS011;943;51.568;6.998;2023-05-10T05:28:05;130.07;;;41.80;;
1885;SDS011;943;51.568;6.998;2023-05-10T05:30:33;137.00;;;45.43;;
1885;SDS011;943;51.568;6.998;2023-05-10T05:33:01;115.10;;;41.60;;
1885;SDS011;943;51.568;6.998;2023-05-10T05:35:30;109.50;;;42.03;;
1885;SDS011;943;51.568;6.998;2023-05-10T05:37:58;129.50;;;43.30;;
1885;SDS011;943;51.568;6.998;2023-05-10T05:40:26;126.33;;;45.50;;
1885;SDS011;943;51.568;6.998;2023-05-10T05:42:54;106.33;;;39.13;;
1885;SDS011;943;51.568;6.998;2023-05-10T05:45:21;103.23;;;39.60;;
1885;SDS011;943;51.568;6.998;2023-05-10T05:47:49;101.10;;;38.87;;
1885;SDS011;943;51.568;6.998;2023-05-10T05:50:17;109.40;;;42.27;;
1885;SDS011;943;51.568;6.998;2023-05-10T05:52:45;90.03;;;37.97;;
1885;SDS011;943;51.568;6.998;2023-05-10T05:55:13;88.33;;;37.07;;
1885;SDS011;943;51.568;6.998;2023-05-10T05:57:41;85.90;;;38.60;;
1885;SDS011;943;51.568;6.998;2023-05-10T06:00:09;85.83;;;36.13;;
1885;SDS011;943;51.568;6.998;2023-05-10T06:02:38;85.80;;;37.20;;
1885;SDS011;943;51.568;6.998;2023-05-10T06:05:07;72.50;;;38.07;;
1885;SDS011;943;51.568;6.998;2023-05-10T06:07:35;76.27;;;37.33;;
1885;SDS011;943;51.568;6.998;2023-05-10T06:10:03;78.07;;;37.47;;
1885;SDS011;943;51.568;6.998;2023-05-10T06:12:33;79.40;;;37.80;;
1885;SDS011;943;51.568;6.998;2023-05-10T06:15:01;67.77;;;38.40;;
1885;SDS011;943;51.568;6.998;2023-05-10T06:17:31;61.00;;;33.53;;
1885;SDS011;943;51.568;6.998;2023-05-10T06:19:59;64.47;;;33.47;;
1885;SDS011;943;51.568;6.998;2023-05-10T06:22:27;62.43;;;33.33;;
1885;SDS011;943;51.568;6.998;2023-05-10T06:24:55;62.77;;;33.13;;
1885;SDS011;943;51.568;6.998;2023-05-10T06:27:23;59.93;;;34.33;;
1885;SDS011;943;51.568;6.998;2023-05-10T06:29:52;49.43;;;30.50;;
1885;SDS011;943;51.568;6.998;2023-05-10T06:32:34;53.33;;;32.50;;
1885;SDS011;943;51.568;6.998;2023-05-10T06:35:02;44.63;;;28.70;;
1885;SDS011;943;51.568;6.998;2023-05-10T06:37:31;53.33;;;29.97;;
1885;SDS011;943;51.568;6.998;2023-05-10T06:39:59;47.33;;;29.13;;
1885;SDS011;943;51.568;6.998;2023-05-10T06:42:28;49.97;;;29.57;;
1885;SDS011;943;51.568;6.998;2023-05-10T06:44:56;56.10;;;31.23;;
1885;SDS011;943;51.568;6.998;2023-05-10T06:47:25;50.47;;;29.67;;
1885;SDS011;943;51.568;6.998;2023-05-10T06:49:53;43.70;;;29.13;;
1885;SDS011;943;51.568;6.998;2023-05-10T06:52:22;48.07;;;29.50;;
1885;SDS011;943;51.568;6.998;2023-05-10T06:54:50;46.80;;;29.30;;
1885;SDS011;943;51.568;6.998;2023-05-10T06:57:18;50.67;;;30.10;;
1885;SDS011;943;51.568;6.998;2023-05-10T06:59:59;46.87;;;29.33;;
1885;SDS011;943;51.568;6.998;2023-05-10T07:02:30;55.70;;;27.53;;
1885;SDS011;943;51.568;6.998;2023-05-10T07:04:59;46.57;;;27.90;;
1885;SDS011;943;51.568;6.998;2023-05-10T07:07:29;48.53;;;29.90;;
1885;SDS011;943;51.568;6.998;2023-05-10T07:09:57;47.33;;;30.87;;
1885;SDS011;943;51.568;6.998;2023-05-10T07:12:25;47.20;;;28.97;;
1885;SDS011;943;51.568;6.998;2023-05-10T07:14:54;50.70;;;32.00;;
1885;SDS011;943;51.568;6.998;2023-05-10T07:17:22;51.90;;;29.70;;
1885;SDS011;943;51.568;6.998;2023-05-10T07:19:50;50.70;;;28.07;;
1885;SDS011;943;51.568;6.998;2023-05-10T07:22:18;46.90;;;30.13;;
1885;SDS011;943;51.568;6.998;2023-05-10T07:24:46;46.93;;;28.10;;
1885;SDS011;943;51.568;6.998;2023-05-10T07:27:14;48.07;;;27.47;;
1885;SDS011;943;51.568;6.998;2023-05-10T07:29:42;56.00;;;29.33;;
1885;SDS011;943;51.568;6.998;2023-05-10T07:32:10;49.43;;;29.70;;
1885;SDS011;943;51.568;6.998;2023-05-10T07:34:37;55.80;;;30.77;;
1885;SDS011;943;51.568;6.998;2023-05-10T07:37:05;49.67;;;30.17;;
1885;SDS011;943;51.568;6.998;2023-05-10T07:39:34;44.90;;;27.53;;
1885;SDS011;943;51.568;6.998;2023-05-10T07:42:01;44.20;;;27.20;;
1885;SDS011;943;51.568;6.998;2023-05-10T07:44:30;38.57;;;24.33;;
1885;SDS011;943;51.568;6.998;2023-05-10T07:46:58;40.40;;;26.27;;
1885;SDS011;943;51.568;6.998;2023-05-10T07:49:26;44.80;;;27.03;;
1885;SDS011;943;51.568;6.998;2023-05-10T07:51:53;38.90;;;25.20;;
1885;SDS011;943;51.568;6.998;2023-05-10T07:54:22;38.07;;;25.40;;
1885;SDS011;943;51.568;6.998;2023-05-10T07:56:50;30.23;;;22.60;;
1885;SDS011;943;51.568;6.998;2023-05-10T07:59:18;36.40;;;24.83;;
1885;SDS011;943;51.568;6.998;2023-05-10T08:01:46;37.90;;;23.57;;
1885;SDS011;943;51.568;6.998;2023-05-10T08:04:14;33.03;;;22.80;;
1885;SDS011;943;51.568;6.998;2023-05-10T08:06:42;43.40;;;26.13;;
1885;SDS011;943;51.568;6.998;2023-05-10T08:09:11;44.80;;;29.43;;
1885;SDS011;943;51.568;6.998;2023-05-10T08:11:39;44.57;;;30.00;;
1885;SDS011;943;51.568;6.998;2023-05-10T08:14:10;48.70;;;29.93;;
1885;SDS011;943;51.568;6.998;2023-05-10T08:16:38;46.13;;;31.23;;
1885;SDS011;943;51.568;6.998;2023-05-10T08:19:06;50.80;;;33.70;;
1885;SDS011;943;51.568;6.998;2023-05-10T08:21:34;49.47;;;28.87;;
1885;SDS011;943;51.568;6.998;2023-05-10T08:24:02;43.10;;;28.03;;
1885;SDS011;943;51.568;6.998;2023-05-10T08:26:32;41.30;;;25.67;;
1885;SDS011;943;51.568;6.998;2023-05-10T08:29:00;40.03;;;23.20;;
1885;SDS011;943;51.568;6.998;2023-05-10T08:31:28;31.70;;;23.40;;
1885;SDS011;943;51.568;6.998;2023-05-10T08:33:57;34.13;;;24.13;;
1885;SDS011;943;51.568;6.998;2023-05-10T08:36:25;38.93;;;22.83;;
1885;SDS011;943;51.568;6.998;2023-05-10T08:38:54;34.03;;;21.70;;
1885;SDS011;943;51.568;6.998;2023-05-10T08:41:22;35.50;;;22.97;;
1885;SDS011;943;51.568;6.998;2023-05-10T08:43:55;34.60;;;20.83;;
1885;SDS011;943;51.568;6.998;2023-05-10T08:46:23;35.27;;;21.83;;
1885;SDS011;943;51.568;6.998;2023-05-10T08:48:55;30.40;;;20.50;;
1885;SDS011;943;51.568;6.998;2023-05-10T08:51:28;36.70;;;21.57;;
1885;SDS011;943;51.568;6.998;2023-05-10T08:54:09;27.70;;;20.20;;
1885;SDS011;943;51.568;6.998;2023-05-10T08:56:37;27.03;;;18.70;;
1885;SDS011;943;51.568;6.998;2023-05-10T08:59:05;26.13;;;19.90;;
1885;SDS011;943;51.568;6.998;2023-05-10T09:01:35;29.50;;;21.20;;
1885;SDS011;943;51.568;6.998;2023-05-10T09:04:04;29.97;;;21.63;;
1885;SDS011;943;51.568;6.998;2023-05-10T09:06:33;35.63;;;23.90;;
1885;SDS011;943;51.568;6.998;2023-05-10T09:09:01;31.30;;;23.80;;
1885;SDS011;943;51.568;6.998;2023-05-10T09:11:30;31.03;;;23.67;;
1885;SDS011;943;51.568;6.998;2023-05-10T09:13:59;25.40;;;20.20;;
1885;SDS011;943;51.568;6.998;2023-05-10T09:16:29;25.13;;;18.60;;
1885;SDS011;943;51.568;6.998;2023-05-10T09:18:57;23.00;;;16.60;;
1885;SDS011;943;51.568;6.998;2023-05-10T09:21:25;24.50;;;19.60;;
1885;SDS011;943;51.568;6.998;2023-05-10T09:23:58;26.73;;;19.67;;
1885;SDS011;943;51.568;6.998;2023-05-10T09:26:35;28.00;;;19.50;;
1885;SDS011;943;51.568;6.998;2023-05-10T09:29:15;25.40;;;17.30;;
1885;SDS011;943;51.568;6.998;2023-05-10T09:34:18;40.93;;;26.73;;
1885;SDS011;943;51.568;6.998;2023-05-10T09:37:02;40.80;;;27.70;;
1885;SDS011;943;51.568;6.998;2023-05-10T09:39:31;39.83;;;27.50;;
1885;SDS011;943;51.568;6.998;2023-05-10T09:42:04;41.87;;;28.43;;
1885;SDS011;943;51.568;6.998;2023-05-10T09:44:36;45.37;;;27.17;;
1885;SDS011;943;51.568;6.998;2023-05-10T09:47:05;41.80;;;24.70;;
1885;SDS011;943;51.568;6.998;2023-05-10T09:49:33;35.60;;;21.90;;
1885;SDS011;943;51.568;6.998;2023-05-10T09:52:05;29.63;;;20.87;;
1885;SDS011;943;51.568;6.998;2023-05-10T09:54:35;30.20;;;20.83;;
1885;SDS011;943;51.568;6.998;2023-05-10T09:57:03;32.70;;;21.00;;
1885;SDS011;943;51.568;6.998;2023-05-10T09:59:32;34.97;;;21.30;;
1885;SDS011;943;51.568;6.998;2023-05-10T10:02:01;31.83;;;22.40;;
1885;SDS011;943;51.568;6.998;2023-05-10T10:04:30;35.33;;;20.30;;
1885;SDS011;943;51.568;6.998;2023-05-10T10:06:59;37.73;;;24.70;;
1885;SDS011;943;51.568;6.998;2023-05-10T10:09:31;36.27;;;23.30;;
1885;SDS011;943;51.568;6.998;2023-05-10T10:12:02;34.93;;;23.03;;
1885;SDS011;943;51.568;6.998;2023-05-10T10:14:31;36.50;;;22.80;;
1885;SDS011;943;51.568;6.998;2023-05-10T10:17:00;38.10;;;21.23;;
1885;SDS011;943;51.568;6.998;2023-05-10T10:19:34;36.93;;;22.57;;
1885;SDS011;943;51.568;6.998;2023-05-10T10:22:03;32.17;;;20.80;;
1885;SDS011;943;51.568;6.998;2023-05-10T10:24:33;34.17;;;20.33;;
1885;SDS011;943;51.568;6.998;2023-05-10T10:36:21;27.13;;;19.87;;
1885;SDS011;943;51.568;6.998;2023-05-10T10:41:30;32.30;;;19.70;;
1885;SDS011;943;51.568;6.998;2023-05-10T10:49:51;31.03;;;18.70;;
1885;SDS011;943;51.568;6.998;2023-05-10T10:52:34;35.43;;;20.10;;
1885;SDS011;943;51.568;6.998;2023-05-10T10:55:11;38.17;;;21.07;;
1885;SDS011;943;51.568;6.998;2023-05-10T10:57:53;33.10;;;20.40;;
1885;SDS011;943;51.568;6.998;2023-05-10T11:00:28;28.83;;;18.20;;
1885;SDS011;943;51.568;6.998;2023-05-10T11:03:11;30.33;;;19.27;;
1885;SDS011;943;51.568;6.998;2023-05-10T11:05:42;26.53;;;16.73;;
1885;SDS011;943;51.568;6.998;2023-05-10T11:08:28;25.60;;;18.17;;
1885;SDS011;943;51.568;6.998;2023-05-10T11:11:04;22.73;;;16.30;;
1885;SDS011;943;51.568;6.998;2023-05-10T11:13:36;20.30;;;14.03;;
1885;SDS011;943;51.568;6.998;2023-05-10T11:16:17;24.67;;;17.57;;
1885;SDS011;943;51.568;6.998;2023-05-10T11:18:54;24.00;;;15.60;;
1885;SDS011;943;51.568;6.998;2023-05-10T11:21:47;26.23;;;15.10;;
1885;SDS011;943;51.568;6.998;2023-05-10T11:24:40;20.87;;;15.07;;
1885;SDS011;943;51.568;6.998;2023-05-10T11:27:27;21.10;;;15.83;;
1885;SDS011;943;51.568;6.998;2023-05-10T11:29:55;18.33;;;14.00;;
1885;SDS011;943;51.568;6.998;2023-05-10T11:32:23;21.93;;;16.17;;
1885;SDS011;943;51.568;6.998;2023-05-10T11:34:51;21.63;;;15.67;;
1885;SDS011;943;51.568;6.998;2023-05-10T11:37:19;25.33;;;17.67;;
1885;SDS011;943;51.568;6.998;2023-05-10T11:39:47;24.57;;;17.67;;
1885;SDS011;943;51.568;6.998;2023-05-10T11:42:15;25.27;;;16.27;;
1885;SDS011;943;51.568;6.998;2023-05-10T11:44:45;25.03;;;15.97;;
1885;SDS011;943;51.568;6.998;2023-05-10T11:47:15;28.77;;;17.20;;
1885;SDS011;943;51.568;6.998;2023-05-10T11:49:44;19.70;;;14.97;;
1885;SDS011;943;51.568;6.998;2023-05-10T11:52:15;28.70;;;20.10;;
1885;SDS011;943;51.568;6.998;2023-05-10T11:54:53;26.30;;;17.53;;
1885;SDS011;943;51.568;6.998;2023-05-10T11:57:25;25.83;;;18.30;;
1885;SDS011;943;51.568;6.998;2023-05-10T11:59:58;29.63;;;19.97;;
1885;SDS011;943;51.568;6.998;2023-05-10T12:02:26;29.97;;;19.50;;
1885;SDS011;943;51.568;6.998;2023-05-10T12:04:56;33.20;;;20.33;;
1885;SDS011;943;51.568;6.998;2023-05-10T12:07:25;34.50;;;22.13;;
1885;SDS011;943;51.568;6.998;2023-05-10T12:10:09;33.90;;;20.93;;
1885;SDS011;943;51.568;6.998;2023-05-10T12:12:42;33.13;;;20.40;;
1885;SDS011;943;51.568;6.998;2023-05-10T12:15:19;37.00;;;20.10;;
1885;SDS011;943;51.568;6.998;2023-05-10T12:18:00;26.67;;;19.33;;
1885;SDS011;943;51.568;6.998;2023-05-10T12:20:29;30.80;;;19.40;;
1885;SDS011;943;51.568;6.998;2023-05-10T12:22:58;25.73;;;17.73;;
1885;SDS011;943;51.568;6.998;2023-05-10T12:25:30;30.13;;;18.93;;
1885;SDS011;943;51.568;6.998;2023-05-10T12:28:07;29.43;;;19.80;;
1885;SDS011;943;51.568;6.998;2023-05-10T12:30:39;28.80;;;19.80;;
1885;SDS011;943;51.568;6.998;2023-05-10T12:33:08;24.57;;;18.17;;
1885;SDS011;943;51.568;6.998;2023-05-10T12:35:50;22.80;;;17.53;;
1885;SDS011;943;51.568;6.998;2023-05-10T12:41:12;20.30;;;15.00;;
1885;SDS011;943;51.568;6.998;2023-05-10T12:43:44;24.77;;;16.10;;
1885;SDS011;943;51.568;6.998;2023-05-10T12:46:13;20.70;;;15.10;;
1885;SDS011;943;51.568;6.998;2023-05-10T12:48:45;20.70;;;15.10;;
1885;SDS011;943;51.568;6.998;2023-05-10T12:51:28;24.60;;;15.90;;
1885;SDS011;943;51.568;6.998;2023-05-10T12:53:57;19.10;;;15.03;;
1885;SDS011;943;51.568;6.998;2023-05-10T12:56:25;17.90;;;15.00;;
1885;SDS011;943;51.568;6.998;2023-05-10T12:58:53;21.10;;;14.10;;
1885;SDS011;943;51.568;6.998;2023-05-10T13:01:21;20.50;;;13.97;;
1885;SDS011;943;51.568;6.998;2023-05-10T13:03:49;14.77;;;11.63;;
1885;SDS011;943;51.568;6.998;2023-05-10T13:06:17;18.40;;;12.27;;
1885;SDS011;943;51.568;6.998;2023-05-10T13:08:44;13.00;;;9.47;;
1885;SDS011;943;51.568;6.998;2023-05-10T13:11:13;13.97;;;10.50;;
1885;SDS011;943;51.568;6.998;2023-05-10T13:13:46;11.40;;;10.20;;
1885;SDS011;943;51.568;6.998;2023-05-10T13:16:14;12.70;;;9.70;;
1885;SDS011;943;51.568;6.998;2023-05-10T13:18:42;13.60;;;7.40;;
1885;SDS011;943;51.568;6.998;2023-05-10T13:21:14;14.40;;;9.60;;
1885;SDS011;943;51.568;6.998;2023-05-10T13:23:43;14.10;;;9.17;;
1885;SDS011;943;51.568;6.998;2023-05-10T13:26:10;8.60;;;6.87;;
1885;SDS011;943;51.568;6.998;2023-05-10T13:28:38;12.83;;;9.00;;
1885;SDS011;943;51.568;6.998;2023-05-10T13:31:07;14.50;;;8.50;;
1885;SDS011;943;51.568;6.998;2023-05-10T13:33:35;10.40;;;6.87;;
1885;SDS011;943;51.568;6.998;2023-05-10T13:36:02;14.10;;;7.83;;
1885;SDS011;943;51.568;6.998;2023-05-10T13:38:31;11.57;;;8.27;;
1885;SDS011;943;51.568;6.998;2023-05-10T13:40:59;10.43;;;7.00;;
1885;SDS011;943;51.568;6.998;2023-05-10T13:43:28;8.43;;;5.80;;
1885;SDS011;943;51.568;6.998;2023-05-10T13:45:56;10.80;;;7.37;;
1885;SDS011;943;51.568;6.998;2023-05-10T13:48:24;7.80;;;6.03;;
1885;SDS011;943;51.568;6.998;2023-05-10T13:50:53;8.03;;;6.20;;
1885;SDS011;943;51.568;6.998;2023-05-10T13:53:21;9.63;;;7.20;;
1885;SDS011;943;51.568;6.998;2023-05-10T13:55:50;10.43;;;8.33;;
1885;SDS011;943;51.568;6.998;2023-05-10T13:58:17;11.67;;;8.43;;
1885;SDS011;943;51.568;6.998;2023-05-10T14:00:46;10.20;;;7.70;;
1885;SDS011;943;51.568;6.998;2023-05-10T14:03:14;12.20;;;9.60;;
1885;SDS011;943;51.568;6.998;2023-05-10T14:05:44;14.63;;;8.77;;
1885;SDS011;943;51.568;6.998;2023-05-10T14:08:12;9.50;;;7.67;;
1885;SDS011;943;51.568;6.998;2023-05-10T14:10:41;11.53;;;8.20;;
1885;SDS011;943;51.568;6.998;2023-05-10T14:13:08;8.43;;;6.77;;
1885;SDS011;943;51.568;6.998;2023-05-10T14:15:36;8.87;;;7.57;;
1885;SDS011;943;51.568;6.998;2023-05-10T14:18:04;16.73;;;9.27;;
1885;SDS011;943;51.568;6.998;2023-05-10T14:20:32;17.33;;;9.40;;
1885;SDS011;943;51.568;6.998;2023-05-10T14:23:00;14.57;;;10.53;;
1885;SDS011;943;51.568;6.998;2023-05-10T14:25:28;10.33;;;8.53;;
1885;SDS011;943;51.568;6.998;2023-05-10T14:27:56;11.30;;;8.30;;
1885;SDS011;943;51.568;6.998;2023-05-10T14:30:24;13.20;;;9.00;;
1885;SDS011;943;51.568;6.998;2023-05-10T14:32:52;13.23;;;8.70;;
1885;SDS011;943;51.568;6.998;2023-05-10T14:35:20;11.90;;;7.83;;
1885;SDS011;943;51.568;6.998;2023-05-10T14:37:49;10.00;;;9.00;;
1885;SDS011;943;51.568;6.998;2023-05-10T14:40:17;10.70;;;8.70;;
1885;SDS011;943;51.568;6.998;2023-05-10T14:42:45;13.00;;;8.70;;
1885;SDS011;943;51.568;6.998;2023-05-10T14:45:13;13.90;;;9.90;;
1885;SDS011;943;51.568;6.998;2023-05-10T14:47:44;11.60;;;10.30;;
1885;SDS011;943;51.568;6.998;2023-05-10T14:50:12;12.50;;;10.53;;
1885;SDS011;943;51.568;6.998;2023-05-10T14:53:00;11.47;;;10.10;;
1885;SDS011;943;51.568;6.998;2023-05-10T14:55:28;13.00;;;10.00;;
1885;SDS011;943;51.568;6.998;2023-05-10T14:57:56;11.37;;;8.07;;
1885;SDS011;943;51.568;6.998;2023-05-10T15:00:25;9.40;;;7.90;;
1885;SDS011;943;51.568;6.998;2023-05-10T15:02:56;11.40;;;7.60;;
1885;SDS011;943;51.568;6.998;2023-05-10T15:05:25;11.07;;;8.13;;
1885;SDS011;943;51.568;6.998;2023-05-10T15:07:53;11.17;;;7.97;;
1885;SDS011;943;51.568;6.998;2023-05-10T15:10:22;14.17;;;11.40;;
1885;SDS011;943;51.568;6.998;2023-05-10T15:12:50;12.03;;;9.97;;
1885;SDS011;943;51.568;6.998;2023-05-10T15:15:19;12.43;;;10.10;;
1885;SDS011;943;51.568;6.998;2023-05-10T15:17:47;11.77;;;10.57;;
1885;SDS011;943;51.568;6.998;2023-05-10T15:20:15;14.20;;;10.57;;
1885;SDS011;943;51.568;6.998;2023-05-10T15:22:50;13.57;;;10.80;;
1885;SDS011;943;51.568;6.998;2023-05-10T15:25:19;12.87;;;10.20;;
1885;SDS011;943;51.568;6.998;2023-05-10T15:27:48;14.97;;;9.00;;
1885;SDS011;943;51.568;6.998;2023-05-10T15:30:16;8.00;;;7.10;;
1885;SDS011;943;51.568;6.998;2023-05-10T15:32:44;10.00;;;7.40;;
1885;SDS011;943;51.568;6.998;2023-05-10T15:35:12;15.50;;;10.47;;
1885;SDS011;943;51.568;6.998;2023-05-10T15:37:41;14.30;;;10.63;;
1885;SDS011;943;51.568;6.998;2023-05-10T15:40:09;13.27;;;11.43;;
1885;SDS011;943;51.568;6.998;2023-05-10T15:42:38;11.60;;;9.90;;
1885;SDS011;943;51.568;6.998;2023-05-10T15:45:06;12.10;;;10.80;;
1885;SDS011;943;51.568;6.998;2023-05-10T15:47:35;12.47;;;9.00;;
1885;SDS011;943;51.568;6.998;2023-05-10T15:50:06;13.10;;;10.73;;
1885;SDS011;943;51.568;6.998;2023-05-10T15:52:35;11.93;;;9.83;;
1885;SDS011;943;51.568;6.998;2023-05-10T15:55:03;13.83;;;10.20;;
1885;SDS011;943;51.568;6.998;2023-05-10T15:57:39;17.10;;;11.67;;
1885;SDS011;943;51.568;6.998;2023-05-10T16:00:10;13.77;;;10.80;;